Time;durP1;ratioP1;P1;durP2;ratioP2;P2;SDS_P1;SDS_P2;PMS_P1;PMS_P2;Temp;Humidity;BMP_temperature;BMP_pressure;BME280_temperature;BME280_humidity;BME280_pressure;Samples;Min_cycle;Max_cycle;Signal;HPM_P1;HPM_P2
2023/09/04 00:00:45;;;;;;;6.60;2.00;;;;;;;24.93;50.66;98823.63;4807234;29;20183;-83
2023/09/04 00:03:12;;;;;;;4.37;1.77;;;;;;;24.94;50.45;98817.25;4806944;29;20202;-83
2023/09/04 00:05:39;;;;;;;3.97;2.20;;;;;;;24.92;49.98;98822.78;4806071;29;20604;-83
2023/09/04 00:08:05;;;;;;;3.33;1.63;;;;;;;24.96;49.60;98823.25;4807575;29;20221;-83
2023/09/04 00:10:31;;;;;;;3.13;1.63;;;;;;;24.90;49.21;98814.09;4806911;29;20285;-84
2023/09/04 00:12:58;;;;;;;4.57;2.00;;;;;;;24.87;49.33;98813.59;4806826;29;20205;-83
2023/09/04 00:15:25;;;;;;;4.07;1.97;;;;;;;24.85;49.28;98821.84;4807178;29;20185;-83
2023/09/04 00:17:52;;;;;;;2.77;1.50;;;;;;;24.82;49.38;98816.81;4807362;29;20198;-83
2023/09/04 00:20:17;;;;;;;5.77;1.60;;;;;;;24.82;49.57;98811.47;4806864;29;20608;-83
2023/09/04 00:22:44;;;;;;;5.07;1.83;;;;;;;24.78;50.08;98815.53;4806883;29;20219;-83
2023/09/04 00:25:16;;;;;;;4.33;1.70;;;;;;;24.81;50.02;98823.22;5091206;27;21160;-83
2023/09/04 00:27:43;;;;;;;6.27;1.70;;;;;;;24.81;50.50;98819.69;5090598;28;20181;-83
2023/09/04 00:30:10;;;;;;;5.70;2.53;;;;;;;24.72;51.01;98815.34;5090495;28;20188;-85
2023/09/04 00:32:36;;;;;;;2.97;1.60;;;;;;;24.66;51.52;98816.09;5091043;28;20230;-84
2023/09/04 00:35:02;;;;;;;3.93;2.10;;;;;;;24.57;52.25;98811.78;5090725;28;20173;-84
2023/09/04 00:37:29;;;;;;;3.27;1.87;;;;;;;24.48;52.97;98810.97;5090422;28;20183;-83
2023/09/04 00:39:55;;;;;;;3.27;1.63;;;;;;;24.47;53.27;98809.34;5090236;28;20184;-83
2023/09/04 00:42:22;;;;;;;5.13;2.03;;;;;;;24.53;53.50;98805.94;5090296;28;20210;-83
2023/09/04 00:44:51;;;;;;;4.87;2.00;;;;;;;24.55;53.69;98803.09;5090475;28;20197;-83
2023/09/04 00:47:22;;;;;;;5.43;2.00;;;;;;;24.50;54.28;98803.63;5090126;28;20275;-84
2023/09/04 00:49:51;;;;;;;2.77;1.73;;;;;;;24.44;54.29;98815.03;5090480;28;20654;-84
2023/09/04 00:52:17;;;;;;;3.17;1.80;;;;;;;24.37;55.01;98801.50;5090430;28;20173;-84
2023/09/04 00:54:44;;;;;;;4.17;1.70;;;;;;;24.27;55.31;98800.03;5089910;28;20242;-84
2023/09/04 00:57:12;;;;;;;3.70;1.60;;;;;;;24.35;54.86;98798.16;5090274;28;20187;-85
2023/09/04 00:59:40;;;;;;;5.03;2.07;;;;;;;24.21;55.50;98801.56;5090156;28;20657;-84
2023/09/04 01:02:06;;;;;;;3.70;1.90;;;;;;;24.32;55.16;98803.88;5090183;28;20207;-84
2023/09/04 01:04:33;;;;;;;3.57;1.53;;;;;;;24.26;55.76;98798.41;5090107;28;20556;-84
2023/09/04 01:06:59;;;;;;;3.70;2.03;;;;;;;24.16;55.75;98797.78;5089883;28;20177;-84
2023/09/04 01:09:25;;;;;;;3.23;1.97;;;;;;;24.26;56.06;98798.41;5071986;28;20558;-84
2023/09/04 01:12:05;;;;;;;3.03;1.60;;;;;;;24.33;55.52;98799.34;5071953;28;20169;-83
2023/09/04 01:14:32;;;;;;;5.83;1.87;;;;;;;24.22;55.73;98789.88;5090247;28;20302;-84
2023/09/04 01:16:58;;;;;;;3.30;2.00;;;;;;;24.23;55.82;98798.75;5089657;28;20299;-84
2023/09/04 01:19:24;;;;;;;4.80;1.57;;;;;;;24.10;56.65;98788.59;5089613;28;20183;-83
2023/09/04 01:21:50;;;;;;;4.40;1.90;;;;;;;24.17;56.25;98794.06;5089572;28;20180;-84
2023/09/04 01:24:16;;;;;;;4.10;1.43;;;;;;;24.30;55.80;98788.97;5071393;28;20361;-84
2023/09/04 01:27:15;;;;;;;5.30;1.67;;;;;;;24.25;55.70;98791.34;5089494;28;20188;-84
2023/09/04 01:30:10;;;;;;;4.80;1.60;;;;;;;24.20;55.75;98778.50;5071438;28;20165;-83
2023/09/04 01:32:43;;;;;;;3.23;1.47;;;;;;;24.17;55.83;98784.19;5089445;28;20177;-84
2023/09/04 01:35:10;;;;;;;3.30;1.40;;;;;;;24.23;55.71;98778.16;5084447;28;20165;-84
2023/09/04 01:37:38;;;;;;;2.90;1.40;;;;;;;24.27;55.73;98775.94;5058150;28;20181;-83
2023/09/04 01:40:07;;;;;;;3.03;1.43;;;;;;;24.28;55.28;98782.97;5075980;28;20260;-83
2023/09/04 01:42:36;;;;;;;3.97;1.50;;;;;;;24.38;55.00;98784.41;5075796;28;20181;-83
2023/09/04 01:45:03;;;;;;;2.10;1.30;;;;;;;24.36;54.97;98793.66;5075550;28;20196;-83
2023/09/04 01:47:30;;;;;;;4.83;1.70;;;;;;;24.36;55.03;98789.13;5057828;28;20189;-84
2023/09/04 01:49:57;;;;;;;3.57;1.70;;;;;;;24.37;55.28;98785.41;5075830;28;20184;-83
2023/09/04 01:52:23;;;;;;;2.73;1.43;;;;;;;24.30;55.61;98776.44;5075532;28;20246;-83
2023/09/04 01:54:49;;;;;;;3.77;1.40;;;;;;;24.33;55.17;98780.59;5075483;28;20642;-83
2023/09/04 01:57:16;;;;;;;2.47;1.27;;;;;;;24.35;55.23;98787.44;5075309;28;20173;-84
2023/09/04 01:59:43;;;;;;;2.60;1.30;;;;;;;24.42;54.98;98776.88;5075673;28;20165;-83
2023/09/04 02:02:08;;;;;;;2.97;1.20;;;;;;;24.28;55.15;98791.84;5075335;28;20197;-83
2023/09/04 02:04:35;;;;;;;2.53;1.00;;;;;;;24.40;54.87;98785.06;5075275;28;20227;-83
2023/09/04 02:07:00;;;;;;;2.50;1.30;;;;;;;24.38;54.86;98786.25;5075240;28;20252;-83
2023/09/04 02:09:27;;;;;;;5.17;1.60;;;;;;;24.43;54.72;98789.25;5075333;28;20264;-83
2023/09/04 02:11:53;;;;;;;2.47;1.30;;;;;;;24.39;54.83;98787.94;5057556;28;20605;-83
2023/09/04 02:14:19;;;;;;;3.00;1.40;;;;;;;24.35;55.36;98786.59;5057509;28;20181;-83
2023/09/04 02:16:45;;;;;;;2.40;1.20;;;;;;;24.46;54.95;98783.53;5075112;28;20173;-83
2023/09/04 02:19:10;;;;;;;3.60;1.50;;;;;;;24.32;55.40;98784.28;5075037;28;20227;-84
2023/09/04 02:21:35;;;;;;;2.77;1.23;;;;;;;24.26;55.93;98785.00;5057287;28;20289;-83
2023/09/04 02:24:02;;;;;;;2.40;1.23;;;;;;;24.35;55.58;98789.28;5074632;28;20229;-83
2023/09/04 02:26:27;;;;;;;2.87;1.33;;;;;;;24.40;55.45;98794.94;5074810;28;20258;-84
2023/09/04 02:28:53;;;;;;;3.00;1.50;;;;;;;24.41;55.81;98783.22;5074790;28;20181;-83
2023/09/04 02:31:20;;;;;;;5.00;2.00;;;;;;;24.40;55.81;98785.06;5075137;28;20315;-84
2023/09/04 02:33:47;;;;;;;3.00;1.60;;;;;;;24.42;55.54;98776.88;5074738;28;20692;-83
2023/09/04 02:36:13;;;;;;;3.20;1.53;;;;;;;24.50;55.16;98782.19;5075082;28;20177;-83
2023/09/04 02:38:41;;;;;;;4.30;1.27;;;;;;;24.49;55.23;98785.88;5074902;28;20250;-83
2023/09/04 02:41:08;;;;;;;4.50;1.40;;;;;;;24.41;55.77;98775.19;5056982;28;20188;-83
2023/09/04 02:43:35;;;;;;;3.67;1.80;;;;;;;24.51;55.40;98775.81;5074345;28;20208;-83
2023/09/04 02:46:01;;;;;;;2.73;1.47;;;;;;;24.45;55.69;98777.34;5074659;28;20203;-83
2023/09/04 02:48:28;;;;;;;2.97;1.60;;;;;;;24.37;55.87;98776.56;5073623;28;20173;-83
2023/09/04 02:51:01;;;;;;;3.03;1.40;;;;;;;24.41;55.89;98777.88;5074193;28;20693;-84
2023/09/04 02:53:29;;;;;;;2.60;1.20;;;;;;;24.40;55.86;98773.53;5074855;28;20245;-83
2023/09/04 02:55:55;;;;;;;2.97;1.40;;;;;;;24.41;55.93;98770.69;5074247;28;20181;-83
2023/09/04 02:58:21;;;;;;;2.90;1.40;;;;;;;24.47;55.67;98779.84;5074494;28;20184;-83
2023/09/04 03:00:49;;;;;;;3.57;1.63;;;;;;;24.39;55.74;98782.59;5074141;28;20180;-83
2023/09/04 03:03:19;;;;;;;2.70;1.37;;;;;;;24.41;56.16;98775.19;5085390;28;20188;-84
2023/09/04 03:05:46;;;;;;;4.70;1.70;;;;;;;24.45;55.84;98773.81;5036475;28;20578;-84
2023/09/04 03:08:14;;;;;;;4.63;1.40;;;;;;;24.48;55.86;98769.94;5054312;28;20184;-84
2023/09/04 03:10:40;;;;;;;3.03;1.50;;;;;;;24.62;55.13;98767.34;5054558;28;20216;-83
2023/09/04 03:13:07;;;;;;;2.77;1.60;;;;;;;24.57;55.90;98758.19;5053923;28;20173;-83
2023/09/04 03:15:33;;;;;;;3.23;1.30;;;;;;;24.47;55.89;98753.06;5053964;28;20181;-84
2023/09/04 03:18:00;;;;;;;3.73;1.70;;;;;;;24.50;55.88;98758.06;5041713;28;20173;-83
2023/09/04 03:20:25;;;;;;;3.80;1.77;;;;;;;24.57;55.72;98752.81;5073791;28;20224;-83
2023/09/04 03:22:52;;;;;;;3.57;1.50;;;;;;;24.48;55.58;98754.72;5073750;28;20622;-84
2023/09/04 03:25:19;;;;;;;6.47;1.57;;;;;;;24.44;55.62;98758.78;5073471;28;20208;-83
2023/09/04 03:27:45;;;;;;;3.23;1.47;;;;;;;24.46;56.10;98756.75;5073701;28;20169;-83
2023/09/04 03:30:12;;;;;;;2.43;1.40;;;;;;;24.52;55.71;98745.31;5074146;28;20204;-83
2023/09/04 03:32:38;;;;;;;7.20;2.20;;;;;;;24.58;55.60;98755.31;5074128;28;20264;-83
2023/09/04 03:35:04;;;;;;;3.20;1.90;;;;;;;24.59;55.34;98746.28;5073538;28;20326;-83
2023/09/04 03:37:34;;;;;;;3.43;1.63;;;;;;;24.56;55.35;98749.31;5073777;28;20260;-83
2023/09/04 03:40:17;;;;;;;3.83;1.90;;;;;;;24.63;55.24;98754.78;5055861;28;20173;-83
2023/09/04 03:42:42;;;;;;;5.43;2.03;;;;;;;24.60;55.09;98761.34;5055831;28;20222;-83
2023/09/04 03:45:09;;;;;;;4.40;1.77;;;;;;;24.53;55.72;98763.03;5055480;28;20336;-83
2023/09/04 03:47:36;;;;;;;3.60;1.63;;;;;;;24.49;55.84;98752.88;5073361;28;20177;-83
2023/09/04 03:50:01;;;;;;;6.07;1.97;;;;;;;24.54;55.71;98756.69;5073372;28;20176;-83
2023/09/04 03:52:28;;;;;;;4.47;1.70;;;;;;;24.62;55.65;98745.91;5073578;28;20537;-83
2023/09/04 03:54:54;;;;;;;3.70;1.53;;;;;;;24.56;56.12;98757.34;5073777;28;20180;-83
2023/09/04 03:57:20;;;;;;;3.60;1.90;;;;;;;24.58;55.77;98747.28;5073288;28;20264;-83
2023/09/04 03:59:52;;;;;;;4.10;1.80;;;;;;;24.60;55.74;98755.16;5072947;28;20280;-83
2023/09/04 04:02:19;;;;;;;3.00;1.40;;;;;;;24.58;56.24;98759.84;5073114;28;20214;-83
2023/09/04 04:04:45;;;;;;;3.80;1.37;;;;;;;24.55;56.23;98750.34;5073618;28;20200;-83
2023/09/04 04:07:12;;;;;;;3.67;1.63;;;;;;;24.43;56.66;98757.94;5055511;28;20277;-83
2023/09/04 04:09:38;;;;;;;2.97;1.97;;;;;;;24.40;57.16;98768.16;5073331;28;20184;-83
2023/09/04 04:12:06;;;;;;;4.07;1.93;;;;;;;24.33;57.11;98760.00;5055362;28;20564;-83
2023/09/04 04:14:32;;;;;;;3.83;1.80;;;;;;;24.37;56.85;98755.16;5052050;28;20196;-84
2023/09/04 04:16:58;;;;;;;4.67;2.40;;;;;;;24.38;56.85;98764.84;5051657;28;20178;-83
2023/09/04 04:19:24;;;;;;;5.47;2.10;;;;;;;24.41;56.82;98762.63;5052477;28;20178;-83
2023/09/04 04:21:51;;;;;;;3.87;1.67;;;;;;;24.44;56.89;98764.97;5040157;28;20168;-83
2023/09/04 04:24:19;;;;;;;4.10;2.43;;;;;;;24.23;57.61;98762.09;5054922;28;20236;-84
2023/09/04 04:26:46;;;;;;;5.00;1.77;;;;;;;24.08;59.31;98769.16;5073719;28;20183;-84
2023/09/04 04:29:13;;;;;;;4.20;1.93;;;;;;;23.94;59.55;98769.03;5072880;28;20540;-85
2023/09/04 04:31:39;;;;;;;3.53;2.10;;;;;;;23.93;60.12;98770.88;5072527;28;20342;-86
2023/09/04 04:34:05;;;;;;;3.03;1.73;;;;;;;23.83;60.43;98764.91;5072606;28;20173;-86
2023/09/04 04:36:32;;;;;;;3.30;1.80;;;;;;;23.84;60.40;98769.25;5072478;28;20326;-84
2023/09/04 04:38:59;;;;;;;3.40;1.60;;;;;;;23.81;60.55;98762.41;5072784;28;20234;-84
2023/09/04 04:41:25;;;;;;;2.90;1.50;;;;;;;23.79;59.74;98768.94;5054935;28;20635;-87
2023/09/04 04:43:50;;;;;;;4.07;1.80;;;;;;;23.83;59.68;98773.78;5072335;28;20201;-84
2023/09/04 04:46:17;;;;;;;2.83;1.60;;;;;;;23.83;59.20;98765.75;5072602;28;20173;-84
2023/09/04 04:48:42;;;;;;;2.70;1.37;;;;;;;23.76;59.25;98764.78;5072692;28;20711;-86
2023/09/04 04:51:10;;;;;;;2.57;1.30;;;;;;;23.82;59.78;98769.41;5055141;28;20184;-85
2023/09/04 04:53:36;;;;;;;2.17;1.30;;;;;;;23.83;60.29;98772.94;5072512;28;20256;-85
2023/09/04 04:56:03;;;;;;;3.03;1.50;;;;;;;23.81;60.87;98780.31;5058291;28;20354;-86
2023/09/04 04:58:30;;;;;;;5.27;1.80;;;;;;;23.73;61.85;98789.22;5074754;28;20280;-87
2023/09/04 05:00:55;;;;;;;2.40;1.27;;;;;;;23.73;62.53;98794.56;5075022;28;20263;-87
2023/09/04 05:03:22;;;;;;;3.53;1.57;;;;;;;23.69;62.42;98797.72;5092543;28;20616;-87
2023/09/04 05:05:49;;;;;;;2.90;1.40;;;;;;;23.67;62.71;98802.44;5072731;28;20184;-86
2023/09/04 05:08:15;;;;;;;4.07;1.40;;;;;;;23.56;63.03;98805.47;5072658;28;20177;-86
2023/09/04 05:10:41;;;;;;;4.63;1.77;;;;;;;23.54;63.39;98805.63;5056509;28;20685;-86
2023/09/04 05:13:08;;;;;;;3.20;2.00;;;;;;;23.56;63.69;98808.97;5058979;28;20204;-86
2023/09/04 05:15:35;;;;;;;3.20;1.90;;;;;;;23.53;63.56;98806.63;5058700;28;20234;-86
2023/09/04 05:18:02;;;;;;;3.40;1.30;;;;;;;23.54;63.75;98808.31;5076494;28;20196;-85
2023/09/04 05:20:29;;;;;;;3.83;2.03;;;;;;;23.38;63.73;98808.34;5076218;28;20212;-86
2023/09/04 05:22:54;;;;;;;4.33;1.70;;;;;;;23.31;65.31;98815.34;5074530;28;20176;-86
2023/09/04 05:25:20;;;;;;;4.20;2.53;;;;;;;23.22;65.64;98819.00;5096157;28;20696;-86
2023/09/04 05:27:47;;;;;;;4.03;1.70;;;;;;;23.33;65.29;98821.34;5073893;28;20199;-86
2023/09/04 05:30:12;;;;;;;2.53;1.00;;;;;;;23.35;64.23;98824.69;5086500;28;20180;-86
2023/09/04 05:32:39;;;;;;;3.63;1.73;;;;;;;23.27;65.22;98824.69;5095517;28;20699;-86
2023/09/04 05:35:07;;;;;;;2.40;0.93;;;;;;;23.33;64.40;98826.69;5095319;28;20192;-86
2023/09/04 05:37:33;;;;;;;2.43;1.17;;;;;;;23.40;64.27;98838.41;5089411;28;20181;-87
2023/09/04 05:39:59;;;;;;;2.90;1.50;;;;;;;23.45;63.51;98835.25;5057449;28;20281;-86
2023/09/04 05:42:24;;;;;;;2.97;1.20;;;;;;;23.40;63.67;98834.94;5075153;28;20211;-86
2023/09/04 05:44:51;;;;;;;3.00;1.50;;;;;;;23.38;64.31;98835.09;5074588;28;20304;-86
2023/09/04 05:47:18;;;;;;;3.00;1.13;;;;;;;23.24;63.71;98830.41;5075783;28;20177;-86
2023/09/04 05:49:43;;;;;;;1.97;1.10;;;;;;;23.23;64.35;98837.59;5076271;28;20176;-86
2023/09/04 05:52:10;;;;;;;4.37;1.30;;;;;;;23.22;64.42;98837.72;5076201;28;20237;-86
2023/09/04 05:54:37;;;;;;;1.67;0.87;;;;;;;23.21;64.75;98841.44;5075576;28;20185;-86
2023/09/04 05:57:03;;;;;;;2.60;1.20;;;;;;;23.20;64.48;98840.59;5075563;28;20534;-86
2023/09/04 05:59:29;;;;;;;1.97;1.10;;;;;;;23.11;65.24;98846.13;5057840;28;20184;-85
2023/09/04 06:01:56;;;;;;;2.83;1.23;;;;;;;23.09;64.97;98846.25;5057856;28;20191;-85
2023/09/04 06:04:22;;;;;;;4.47;1.57;;;;;;;23.09;65.37;98840.06;5075405;28;20205;-86
2023/09/04 06:06:49;;;;;;;2.67;1.20;;;;;;;23.12;65.12;98847.75;5075714;28;20303;-85
2023/09/04 06:09:17;;;;;;;2.50;1.13;;;;;;;23.17;65.00;98845.44;5075478;28;20196;-86
2023/09/04 06:11:44;;;;;;;3.10;1.43;;;;;;;23.22;64.99;98851.94;5075252;28;20169;-86
2023/09/04 06:14:10;;;;;;;4.07;1.67;;;;;;;23.21;65.42;98849.47;5075104;28;20189;-86
2023/09/04 06:16:38;;;;;;;3.20;1.53;;;;;;;23.24;65.18;98849.13;5075219;28;20559;-85
2023/09/04 06:19:05;;;;;;;3.63;1.63;;;;;;;23.26;65.30;98852.47;5057466;28;20184;-85
2023/09/04 06:21:31;;;;;;;2.50;1.40;;;;;;;23.31;65.56;98847.44;5057334;28;20169;-86
2023/09/04 06:23:56;;;;;;;3.10;1.93;;;;;;;23.24;65.56;98849.94;5071582;28;20213;-86
2023/09/04 06:26:21;;;;;;;3.87;1.60;;;;;;;23.20;65.66;98856.63;5060747;28;20558;-86
2023/09/04 06:28:47;;;;;;;4.27;1.40;;;;;;;23.28;65.41;98869.16;5064599;28;20184;-87
2023/09/04 06:31:12;;;;;;;3.83;1.43;;;;;;;23.31;65.67;98858.13;5057147;28;20242;-89
2023/09/04 06:33:39;;;;;;;3.07;1.53;;;;;;;23.27;66.50;98858.66;5057070;28;20239;-88
2023/09/04 06:36:06;;;;;;;3.23;1.50;;;;;;;23.34;66.35;98865.00;5074828;28;20252;-88
2023/09/04 06:38:32;;;;;;;2.90;1.40;;;;;;;23.37;66.77;98862.84;5057458;28;20590;-87
2023/09/04 06:40:59;;;;;;;4.50;1.60;;;;;;;23.38;66.51;98866.34;5057383;28;20590;-88
2023/09/04 06:43:27;;;;;;;2.77;1.60;;;;;;;23.23;67.34;98874.19;5057112;28;20292;-87
2023/09/04 06:45:54;;;;;;;3.07;1.73;;;;;;;23.21;67.57;98878.88;5074653;28;20181;-89
2023/09/04 06:48:20;;;;;;;3.40;1.90;;;;;;;23.23;67.93;98883.06;5074552;28;20177;-88
2023/09/04 06:50:50;;;;;;;2.67;1.37;;;;;;;23.27;67.85;98880.03;5074540;28;20173;-89
2023/09/04 06:53:17;;;;;;;3.30;1.63;;;;;;;23.14;69.48;98885.88;5074756;28;20192;-87
2023/09/04 06:55:44;;;;;;;4.37;2.47;;;;;;;23.00;69.48;98883.84;5074509;28;20185;-87
2023/09/04 06:58:09;;;;;;;4.47;2.40;;;;;;;23.10;69.14;98889.88;5074910;28;20185;-87
2023/09/04 07:00:36;;;;;;;6.17;2.53;;;;;;;23.03;69.90;98895.06;5074504;28;20649;-88
2023/09/04 07:03:06;;;;;;;7.93;2.80;;;;;;;22.88;70.73;98898.53;5056677;28;20184;-88
2023/09/04 07:05:33;;;;;;;4.17;2.23;;;;;;;22.63;71.82;98893.13;5074443;28;20272;-89
2023/09/04 07:07:59;;;;;;;6.57;2.70;;;;;;;22.46;72.61;98894.03;5074091;28;20214;-87
2023/09/04 07:10:27;;;;;;;4.03;2.23;;;;;;;22.55;72.70;98894.91;5056785;28;20534;-87
2023/09/04 07:12:53;;;;;;;4.93;2.63;;;;;;;22.45;73.27;98887.03;5074588;28;20263;-89
2023/09/04 07:15:20;;;;;;;7.47;2.57;;;;;;;22.46;73.75;98894.03;5074355;28;20648;-88
2023/09/04 07:17:47;;;;;;;5.10;2.80;;;;;;;22.39;73.88;98890.34;5074097;28;20173;-87
2023/09/04 07:20:14;;;;;;;4.43;2.50;;;;;;;22.47;74.28;98889.53;5056368;28;20530;-87
2023/09/04 07:22:40;;;;;;;4.00;2.27;;;;;;;22.03;75.52;98899.53;5073885;28;20200;-86
2023/09/04 07:25:07;;;;;;;5.43;3.10;;;;;;;21.79;76.99;98900.19;5056376;28;20272;-86
2023/09/04 07:27:33;;;;;;;10.37;3.30;;;;;;;21.80;77.45;98903.69;5056308;28;20189;-86
2023/09/04 07:30:00;;;;;;;4.73;2.60;;;;;;;21.75;78.24;98911.34;5057397;28;20231;-86
2023/09/04 07:32:27;;;;;;;5.77;2.77;;;;;;;21.90;77.41;98915.97;5073464;28;20177;-86
2023/09/04 07:34:56;;;;;;;3.97;2.60;;;;;;;21.93;77.15;98909.47;5074042;28;20176;-86
2023/09/04 07:37:27;;;;;;;5.03;2.90;;;;;;;22.12;76.23;98909.22;5073799;28;20238;-86
2023/09/04 07:39:53;;;;;;;4.27;2.57;;;;;;;22.02;76.73;98909.34;5073891;28;20233;-86
2023/09/04 07:42:20;;;;;;;4.10;2.27;;;;;;;21.95;77.31;98907.47;5073613;28;20169;-86
2023/09/04 07:44:48;;;;;;;4.53;2.57;;;;;;;21.97;77.36;98911.66;5073550;28;20197;-85
2023/09/04 07:47:15;;;;;;;5.73;3.47;;;;;;;22.01;76.91;98913.00;5073600;28;20181;-86
2023/09/04 07:49:41;;;;;;;3.90;2.43;;;;;;;22.05;76.14;98913.53;5073532;28;20193;-86
2023/09/04 07:52:08;;;;;;;3.87;2.40;;;;;;;22.00;76.43;98915.84;5073466;28;20180;-86
2023/09/04 07:54:35;;;;;;;3.23;1.83;;;;;;;22.10;75.64;98913.06;5073909;28;20530;-86
2023/09/04 07:57:04;;;;;;;3.53;2.07;;;;;;;22.23;74.85;98916.13;5073425;28;20177;-85
2023/09/04 07:59:31;;;;;;;5.27;2.60;;;;;;;22.08;75.42;98918.56;5055771;28;20238;-85
2023/09/04 08:01:57;;;;;;;7.30;2.27;;;;;;;22.02;75.36;98924.53;5055727;28;20181;-86
2023/09/04 08:04:24;;;;;;;3.33;2.00;;;;;;;21.79;76.85;98924.19;5073787;28;20196;-85
2023/09/04 08:06:49;;;;;;;3.33;2.10;;;;;;;21.70;77.28;98917.13;5073238;28;20215;-85
2023/09/04 08:09:16;;;;;;;4.67;2.43;;;;;;;21.94;76.56;98928.00;5073246;28;20180;-85
2023/09/04 08:11:41;;;;;;;3.57;2.07;;;;;;;21.88;76.21;98925.94;5073734;28;20177;-86
2023/09/04 08:14:08;;;;;;;5.70;2.37;;;;;;;21.78;76.34;98927.00;5055491;28;20176;-86
2023/09/04 08:16:34;;;;;;;3.53;1.80;;;;;;;21.89;76.52;98924.13;5073695;28;20230;-86
2023/09/04 08:19:01;;;;;;;4.77;2.37;;;;;;;21.88;76.40;98925.13;5073201;28;20172;-87
2023/09/04 08:21:27;;;;;;;5.07;1.90;;;;;;;21.77;77.10;98930.69;5055814;28;20173;-87
2023/09/04 08:23:53;;;;;;;4.40;2.40;;;;;;;21.84;76.60;98926.38;5055558;28;20200;-87
2023/09/04 08:26:18;;;;;;;5.70;2.60;;;;;;;21.99;75.52;98924.84;5055465;28;20236;-87
2023/09/04 08:28:44;;;;;;;4.10;2.57;;;;;;;21.72;76.79;98927.66;5073098;28;20243;-86
2023/09/04 08:31:10;;;;;;;5.17;2.33;;;;;;;21.78;76.36;98922.50;5073121;28;20177;-87
2023/09/04 08:33:36;;;;;;;3.80;2.30;;;;;;;21.94;75.70;98928.00;5055406;28;20192;-86
2023/09/04 08:36:02;;;;;;;3.83;2.27;;;;;;;22.05;75.13;98926.88;5073286;28;20173;-87
2023/09/04 08:38:28;;;;;;;4.77;2.43;;;;;;;22.07;75.04;98929.38;5073057;28;20622;-87
2023/09/04 08:40:59;;;;;;;4.60;2.43;;;;;;;21.94;75.81;98930.66;5055309;28;20203;-86
2023/09/04 08:43:29;;;;;;;4.43;2.23;;;;;;;21.96;75.97;98935.81;5055820;28;20259;-87
2023/09/04 08:45:55;;;;;;;4.07;2.20;;;;;;;21.93;75.11;98931.63;5057473;28;20189;-86
2023/09/04 08:48:22;;;;;;;5.83;2.30;;;;;;;21.87;76.15;98928.78;5076990;28;20169;-86
2023/09/04 08:50:49;;;;;;;2.73;1.77;;;;;;;21.88;76.00;98939.28;5077179;28;20173;-86
2023/09/04 08:53:16;;;;;;;5.73;2.03;;;;;;;21.95;75.78;98931.50;5059051;28;20181;-86
2023/09/04 08:55:43;;;;;;;7.90;2.70;;;;;;;21.89;76.02;98935.63;5077004;28;20177;-86
2023/09/04 08:58:10;;;;;;;3.87;2.17;;;;;;;21.96;75.92;98936.66;5059145;28;20177;-86
2023/09/04 09:00:36;;;;;;;5.30;2.20;;;;;;;21.91;76.08;98943.47;5076985;28;20169;-85
2023/09/04 09:03:03;;;;;;;4.40;2.37;;;;;;;21.87;76.63;98939.44;5059217;28;20536;-86
2023/09/04 09:05:33;;;;;;;5.40;2.50;;;;;;;21.96;76.05;98931.34;5076526;28;20626;-86
2023/09/04 09:08:01;;;;;;;4.13;2.60;;;;;;;21.99;75.52;98936.34;5076587;28;20199;-86
2023/09/04 09:10:28;;;;;;;4.00;2.47;;;;;;;21.96;75.62;98933.16;5058956;28;20183;-86
2023/09/04 09:12:55;;;;;;;3.20;2.00;;;;;;;22.00;74.78;98931.88;5076380;28;20181;-86
2023/09/04 09:15:22;;;;;;;4.13;2.47;;;;;;;22.06;74.70;98925.91;5076422;28;20173;-86
2023/09/04 09:17:53;;;;;;;5.23;2.53;;;;;;;22.01;75.08;98925.53;5076702;28;20629;-86
2023/09/04 09:20:39;;;;;;;4.17;2.47;;;;;;;21.97;75.51;98921.50;5058758;28;20187;-86
2023/09/04 09:23:05;;;;;;;5.67;2.30;;;;;;;22.02;75.77;98913.84;5058600;28;20181;-86
2023/09/04 09:25:33;;;;;;;3.57;2.17;;;;;;;22.03;75.79;98913.72;5075943;28;20236;-86
2023/09/04 09:28:05;;;;;;;5.40;2.47;;;;;;;22.13;75.05;98902.91;5038696;28;20204;-86
2023/09/04 09:30:37;;;;;;;8.20;2.50;;;;;;;22.10;75.81;98905.06;5070003;28;20177;-86
2023/09/04 09:33:08;;;;;;;5.53;3.27;;;;;;;22.12;75.85;98897.75;5076390;28;20173;-86
2023/09/04 09:35:35;;;;;;;4.87;3.00;;;;;;;22.26;75.81;98892.63;5076661;28;20161;-85
2023/09/04 09:38:02;;;;;;;3.60;2.20;;;;;;;22.23;76.34;98895.63;5076287;28;20303;-85
2023/09/04 09:40:29;;;;;;;6.60;3.30;;;;;;;22.15;76.01;98895.56;5076533;28;20549;-87
2023/09/04 09:42:58;;;;;;;4.60;2.73;;;;;;;22.29;76.21;98897.66;5076076;28;20177;-88
2023/09/04 09:45:24;;;;;;;4.83;2.93;;;;;;;22.21;75.98;98907.44;5076667;28;20283;-87
2023/09/04 09:47:51;;;;;;;6.70;3.07;;;;;;;22.13;76.55;98899.41;5075804;28;20588;-87
2023/09/04 09:50:19;;;;;;;7.23;3.00;;;;;;;22.12;77.45;98893.22;5058055;28;20275;-87
2023/09/04 09:53:00;;;;;;;6.90;3.60;;;;;;;22.14;78.32;98883.25;5069459;28;20177;-86
2023/09/04 09:55:28;;;;;;;6.23;3.80;;;;;;;22.36;78.62;98874.63;5044075;28;20190;-86
2023/09/04 09:57:54;;;;;;;6.30;3.50;;;;;;;22.38;80.09;98888.66;5041576;28;20194;-87
2023/09/04 10:00:19;;;;;;;4.73;2.77;;;;;;;22.45;79.39;98886.19;5040608;28;20692;-87
2023/09/04 10:02:45;;;;;;;6.50;3.40;;;;;;;22.54;78.69;98878.03;5049163;28;20191;-86
2023/09/04 10:05:11;;;;;;;6.10;3.23;;;;;;;22.67;77.60;98882.94;5040422;28;20213;-86
2023/09/04 10:07:38;;;;;;;4.70;2.97;;;;;;;22.79;77.51;98886.16;5055345;28;20174;-86
2023/09/04 10:10:06;;;;;;;4.50;3.17;;;;;;;22.76;76.52;98881.13;5065905;28;20235;-87
2023/09/04 10:13:03;;;;;;;4.53;2.73;;;;;;;22.69;76.28;98896.16;5063257;28;20219;-86
2023/09/04 10:15:34;;;;;;;4.97;2.90;;;;;;;22.80;76.16;98902.03;5050524;28;20194;-86
2023/09/04 10:18:06;;;;;;;6.13;2.90;;;;;;;22.96;74.96;98909.22;5063587;28;20181;-86
2023/09/04 10:20:36;;;;;;;6.30;2.97;;;;;;;22.91;75.16;98903.53;5044311;28;20272;-86
2023/09/04 10:23:12;;;;;;;8.97;2.73;;;;;;;22.88;74.44;98912.72;5057466;28;20244;-86
2023/09/04 10:26:02;;;;;;;4.23;2.83;;;;;;;22.86;73.44;98906.72;5074807;28;20221;-86
2023/09/04 10:28:36;;;;;;;5.10;2.60;;;;;;;22.78;73.47;98916.53;5075417;28;20169;-86
2023/09/04 10:31:04;;;;;;;3.40;2.03;;;;;;;22.82;72.59;98916.06;5057468;28;20326;-86
2023/09/04 10:33:31;;;;;;;4.47;1.87;;;;;;;22.84;72.87;98916.75;5057731;28;20181;-86
2023/09/04 10:35:58;;;;;;;3.40;2.00;;;;;;;22.87;71.57;98919.09;5075798;28;20263;-86
2023/09/04 10:38:26;;;;;;;3.97;2.33;;;;;;;22.84;72.58;98910.56;5057242;28;20177;-86
2023/09/04 10:40:53;;;;;;;3.33;2.23;;;;;;;22.80;71.95;98914.56;5057168;28;20189;-86
2023/09/04 10:43:18;;;;;;;4.53;2.30;;;;;;;22.75;73.07;98901.66;5075052;28;20626;-86
2023/09/04 10:46:03;;;;;;;4.43;2.77;;;;;;;22.68;74.16;98895.31;5056992;28;20204;-86
2023/09/04 10:48:49;;;;;;;4.30;2.40;;;;;;;22.58;75.50;98889.25;5074704;28;20176;-86
2023/09/04 10:51:30;;;;;;;5.37;2.43;;;;;;;22.77;75.27;98889.00;5057124;28;20543;-86
2023/09/04 10:53:57;;;;;;;5.40;2.20;;;;;;;23.00;74.66;98887.38;5057905;28;20215;-86
2023/09/04 10:56:25;;;;;;;6.13;2.40;;;;;;;22.91;72.62;98877.66;5074358;28;20180;-86
2023/09/04 10:59:04;;;;;;;3.83;2.37;;;;;;;22.83;74.04;98893.69;5056845;28;20242;-86
2023/09/04 11:01:34;;;;;;;3.80;2.40;;;;;;;22.66;73.57;98894.66;5074591;28;20602;-86
2023/09/04 11:04:06;;;;;;;8.93;2.17;;;;;;;22.96;73.36;98895.88;5074190;28;20243;-86
2023/09/04 11:06:40;;;;;;;3.57;2.10;;;;;;;23.08;74.41;98894.56;5074635;28;20188;-86
2023/09/04 11:09:11;;;;;;;4.33;2.70;;;;;;;23.38;72.99;98880.56;5074031;28;20641;-86
2023/09/04 11:11:38;;;;;;;4.00;2.70;;;;;;;23.39;74.18;98876.91;5056866;28;20181;-86
2023/09/04 11:14:09;;;;;;;4.77;2.60;;;;;;;23.55;73.44;98882.25;5074230;28;20238;-87
2023/09/04 11:16:48;;;;;;;4.90;2.60;;;;;;;23.67;72.62;98878.19;5074164;28;20181;-86
2023/09/04 11:19:15;;;;;;;4.20;2.30;;;;;;;23.78;72.83;98869.81;5056367;28;20184;-87
2023/09/04 11:21:46;;;;;;;4.50;2.20;;;;;;;23.77;71.05;98870.81;5056391;28;20177;-88
2023/09/04 11:24:12;;;;;;;4.90;2.70;;;;;;;23.62;69.61;98860.97;5056588;28;20653;-87
2023/09/04 11:26:39;;;;;;;5.33;2.67;;;;;;;23.46;70.77;98864.50;5056417;28;20188;-87
2023/09/04 11:29:06;;;;;;;6.13;2.80;;;;;;;23.47;71.93;98850.13;5073779;28;20173;-87
2023/09/04 11:31:34;;;;;;;4.17;2.57;;;;;;;23.49;70.31;98855.31;5073800;28;20193;-88
2023/09/04 11:34:01;;;;;;;4.00;2.30;;;;;;;23.57;70.92;98856.16;5056229;28;20657;-86
2023/09/04 11:36:28;;;;;;;5.70;2.10;;;;;;;23.79;69.81;98849.25;5073776;28;20177;-87